createdAt,value
2023-04-07T00:02:11.865Z,100057.82
2023-04-07T00:04:41.283Z,100064.53
2023-04-07T00:07:10.250Z,100071.77
2023-04-07T00:09:41.691Z,100072.71
2023-04-07T00:12:11.164Z,100076.28
2023-04-07T00:14:40.272Z,100072.56
2023-04-07T00:17:11.740Z,100072.30
2023-04-07T00:19:44.407Z,100074.38
2023-04-07T00:22:13.501Z,100073.13
2023-04-07T00:24:42.793Z,100071.89
2023-04-07T00:27:12.326Z,100075.56
2023-04-07T00:29:41.515Z,100075.91
2023-04-07T00:32:10.956Z,100082.66
2023-04-07T00:34:40.236Z,100079.86
2023-04-07T00:37:10.917Z,100081.10
2023-04-07T00:39:39.866Z,100085.73
2023-04-07T00:42:08.702Z,100083.19
2023-04-07T00:44:37.491Z,100083.87
2023-04-07T00:47:06.439Z,100084.71
2023-04-07T00:49:38.387Z,100089.82
2023-04-07T00:52:07.829Z,100096.95
2023-04-07T00:54:36.933Z,100096.73
2023-04-07T00:57:06.379Z,100095.30
2023-04-07T00:59:36.702Z,100096.36
2023-04-07T01:02:11.926Z,100103.97
2023-04-07T01:04:42.134Z,100105.52
2023-04-07T01:07:28.168Z,100108.86
2023-04-07T01:10:13.100Z,100110.05
2023-04-07T01:13:12.517Z,100119.23
2023-04-07T01:15:41.855Z,100117.05
2023-04-07T01:18:18.666Z,100116.21
2023-04-07T01:20:49.728Z,100117.25
2023-04-07T01:23:26.632Z,100123.23
2023-04-07T01:26:07.389Z,100122.86
2023-04-07T01:29:19.084Z,100130.14
2023-04-07T01:31:48.256Z,100130.76
2023-04-07T01:34:17.890Z,100130.17
2023-04-07T01:36:46.792Z,100135.23
2023-04-07T01:39:16.116Z,100136.86
2023-04-07T01:41:45.177Z,100138.77
2023-04-07T01:44:14.374Z,100144.63
2023-04-07T01:46:45.001Z,100143.25
2023-04-07T01:49:14.187Z,100145.57
2023-04-07T01:51:44.746Z,100147.90
2023-04-07T01:54:13.921Z,100147.08
2023-04-07T01:56:45.611Z,100146.70
2023-04-07T01:59:14.879Z,100149.74
2023-04-07T02:01:44.578Z,100152.98
2023-04-07T02:04:28.248Z,100151.30
2023-04-07T02:07:00.545Z,100153.20
2023-04-07T02:09:38.789Z,100150.50
2023-04-07T02:12:09.688Z,100148.99
2023-04-07T02:14:41.590Z,100152.00
2023-04-07T02:17:12.573Z,100156.58
2023-04-07T02:19:43.787Z,100153.55
2023-04-07T02:22:12.637Z,100157.41
2023-04-07T02:24:43.310Z,100157.34
2023-04-07T02:27:12.397Z,100160.73
2023-04-07T02:29:41.755Z,100162.68
2023-04-07T02:32:11.452Z,100162.11
2023-04-07T02:34:40.846Z,100166.93
2023-04-07T02:37:12.104Z,100161.02
2023-04-07T02:39:41.263Z,100163.10
2023-04-07T02:42:10.066Z,100165.29
2023-04-07T02:44:39.765Z,100165.90
2023-04-07T02:47:08.600Z,100165.98
2023-04-07T02:49:38.794Z,100169.80
2023-04-07T02:52:08.647Z,100169.46
2023-04-07T02:54:39.020Z,100168.41
2023-04-07T02:57:08.991Z,100174.66
2023-04-07T02:59:37.775Z,100176.04
2023-04-07T03:02:07.573Z,100178.99
2023-04-07T03:04:37.440Z,100179.64
2023-04-07T03:07:06.613Z,100183.06
2023-04-07T03:09:37.137Z,100187.39
2023-04-07T03:12:06.280Z,100193.25
2023-04-07T03:14:36.613Z,100193.11
2023-04-07T03:17:13.754Z,100195.97
2023-04-07T03:19:44.505Z,100197.52
2023-04-07T03:22:13.723Z,100201.41
2023-04-07T03:24:47.578Z,100203.12
2023-04-07T03:27:18.089Z,100208.70
2023-04-07T03:29:52.856Z,100207.92
2023-04-07T03:32:23.408Z,100215.34
2023-04-07T03:34:52.252Z,100216.02
2023-04-07T03:37:21.415Z,100213.91
2023-04-07T03:39:52.143Z,100216.30
2023-04-07T03:42:29.034Z,100215.29
2023-04-07T03:45:03.403Z,100216.42
2023-04-07T03:47:33.449Z,100220.22
2023-04-07T03:50:05.048Z,100223.41
2023-04-07T03:52:36.685Z,100224.23
2023-04-07T03:55:13.031Z,100229.47
2023-04-07T03:57:42.543Z,100234.91
2023-04-07T04:00:13.136Z,100239.20
2023-04-07T04:02:51.566Z,100245.63
2023-04-07T04:05:21.837Z,100250.14
2023-04-07T04:07:51.859Z,100253.81
2023-04-07T04:10:22.406Z,100256.00
2023-04-07T04:12:53.059Z,100261.42
2023-04-07T04:15:24.692Z,100259.20
2023-04-07T04:17:53.581Z,100263.52
2023-04-07T04:20:27.536Z,100261.61
2023-04-07T04:22:57.599Z,100269.84
2023-04-07T04:25:27.525Z,100269.83
2023-04-07T04:27:58.462Z,100270.11
2023-04-07T04:30:28.781Z,100271.75
2023-04-07T04:33:02.336Z,100274.89
2023-04-07T04:35:41.655Z,100274.48
2023-04-07T04:38:19.506Z,100274.91
2023-04-07T04:40:56.957Z,100275.29
2023-04-07T04:43:29.500Z,100277.89
2023-04-07T04:45:59.371Z,100281.12
2023-04-07T04:48:30.097Z,100283.91
2023-04-07T04:50:59.523Z,100290.76
2023-04-07T04:53:30.226Z,100294.09
2023-04-07T04:56:01.465Z,100297.33
2023-04-07T04:58:42.517Z,100302.40
2023-04-07T05:01:13.021Z,100305.17
2023-04-07T05:03:50.780Z,100306.66
2023-04-07T05:06:24.279Z,100310.26
2023-04-07T05:08:57.203Z,100313.98
2023-04-07T05:11:28.675Z,100316.46
2023-04-07T05:13:58.015Z,100322.54
2023-04-07T05:16:30.330Z,100328.77
2023-04-07T05:19:00.303Z,100333.23
2023-04-07T05:21:29.373Z,100334.92
2023-04-07T05:24:03.274Z,100339.48
2023-04-07T05:26:34.087Z,100347.64
2023-04-07T05:29:05.386Z,100349.79
2023-04-07T05:31:38.200Z,100350.97
2023-04-07T05:34:10.827Z,100352.38
2023-04-07T05:36:44.746Z,100353.09
2023-04-07T05:39:14.141Z,100356.96
2023-04-07T05:41:43.824Z,100357.45
2023-04-07T05:44:13.786Z,100360.23
2023-04-07T05:46:44.591Z,100364.39
2023-04-07T05:49:19.988Z,100362.30
2023-04-07T05:51:54.812Z,100363.16
2023-04-07T05:54:24.836Z,100360.29
2023-04-07T05:56:54.871Z,100365.29
2023-04-07T05:59:24.655Z,100362.92
2023-04-07T06:01:58.672Z,100369.57
2023-04-07T06:04:27.879Z,100373.85
2023-04-07T06:06:56.842Z,100374.82
2023-04-07T06:09:27.263Z,100376.91
2023-04-07T06:11:57.335Z,100383.65
2023-04-07T06:14:26.452Z,100384.71
2023-04-07T06:16:57.881Z,100385.17
2023-04-07T06:19:28.182Z,100389.77
2023-04-07T06:21:56.991Z,100383.54
2023-04-07T06:24:25.857Z,100383.17
2023-04-07T06:26:55.347Z,100386.17
2023-04-07T06:29:24.219Z,100391.29
2023-04-07T06:31:54.251Z,100397.35
2023-04-07T06:34:23.482Z,100398.67
2023-04-07T06:36:52.263Z,100398.04
2023-04-07T06:39:21.781Z,100398.08
2023-04-07T06:41:50.580Z,100401.94
2023-04-07T06:44:20.419Z,100404.23
2023-04-07T06:46:53.528Z,100401.72
2023-04-07T06:49:24.173Z,100408.04
2023-04-07T06:51:52.977Z,100409.15
2023-04-07T06:54:21.934Z,100411.88
2023-04-07T06:56:53.469Z,100411.58
2023-04-07T06:59:23.617Z,100415.09
2023-04-07T07:01:52.827Z,100415.21
2023-04-07T07:04:22.084Z,100415.66
2023-04-07T07:06:51.425Z,100415.70
2023-04-07T07:09:20.650Z,100414.41
2023-04-07T07:11:54.339Z,100411.70
2023-04-07T07:14:23.901Z,100408.91
2023-04-07T07:16:52.829Z,100409.90
2023-04-07T07:19:22.647Z,100417.42
2023-04-07T07:21:51.481Z,100413.28
2023-04-07T07:24:20.405Z,100415.32
2023-04-07T07:26:49.324Z,100415.11
2023-04-07T07:29:18.159Z,100414.07
2023-04-07T07:31:47.790Z,100414.61
2023-04-07T07:34:16.876Z,100414.49
2023-04-07T07:36:45.961Z,100416.73
2023-04-07T07:39:16.715Z,100416.70
2023-04-07T07:41:45.734Z,100420.62
2023-04-07T07:44:15.816Z,100422.80
2023-04-07T07:46:45.178Z,100418.09
2023-04-07T07:49:17.197Z,100424.01
2023-04-07T07:51:47.217Z,100422.71
2023-04-07T07:54:19.429Z,100422.96
2023-04-07T07:56:48.207Z,100421.10
2023-04-07T07:59:17.851Z,100423.77
2023-04-07T08:01:49.523Z,100428.10
2023-04-07T08:04:19.061Z,100430.20
2023-04-07T08:06:48.897Z,100431.38
2023-04-07T08:09:19.140Z,100431.91
2023-04-07T08:11:51.560Z,100430.55
2023-04-07T08:14:22.738Z,100430.31
2023-04-07T08:16:51.617Z,100424.08
2023-04-07T08:19:20.640Z,100427.53
2023-04-07T08:21:49.541Z,100429.66
2023-04-07T08:24:18.427Z,100428.86
2023-04-07T08:26:49.072Z,100430.91
2023-04-07T08:29:18.079Z,100432.71
2023-04-07T08:34:13.839Z,100429.81
2023-04-07T08:36:44.115Z,100430.44
2023-04-07T08:39:11.844Z,100433.34
2023-04-07T08:41:42.001Z,100430.08
2023-04-07T08:44:10.224Z,100432.80
2023-04-07T08:46:38.628Z,100434.45
2023-04-07T08:49:13.676Z,100433.91
2023-04-07T08:51:49.312Z,100433.05
2023-04-07T08:54:18.632Z,100439.70
2023-04-07T08:56:48.665Z,100435.72
2023-04-07T08:59:18.360Z,100438.52
2023-04-07T09:01:47.542Z,100440.39
2023-04-07T09:04:16.330Z,100438.59
2023-04-07T09:06:44.223Z,100441.59
2023-04-07T09:09:11.568Z,100444.05
2023-04-07T09:11:40.450Z,100443.16
2023-04-07T09:14:08.077Z,100440.09
2023-04-07T09:16:35.525Z,100440.11
2023-04-07T09:19:03.064Z,100443.30
2023-04-07T09:21:51.012Z,100445.21
2023-04-07T09:24:22.710Z,100439.21
2023-04-07T09:26:50.910Z,100438.29
2023-04-07T09:29:20.308Z,100442.50
2023-04-07T09:31:54.676Z,100446.06
2023-04-07T09:34:32.237Z,100441.69
2023-04-07T09:37:01.011Z,100444.44
2023-04-07T09:39:29.090Z,100442.58
2023-04-07T09:41:57.712Z,100443.92
2023-04-07T09:44:25.664Z,100447.04
2023-04-07T09:46:57.686Z,100447.94
2023-04-07T09:49:25.625Z,100446.05
2023-04-07T09:51:57.185Z,100449.64
2023-04-07T09:54:34.923Z,100448.98
2023-04-07T09:57:07.271Z,100446.05
2023-04-07T09:59:39.011Z,100447.27
2023-04-07T10:02:07.442Z,100448.67
2023-04-07T10:04:35.568Z,100448.19
2023-04-07T10:07:03.446Z,100450.08
2023-04-07T10:09:31.458Z,100458.11
2023-04-07T10:11:59.708Z,100457.14
2023-04-07T10:14:31.342Z,100454.99
2023-04-07T10:17:02.565Z,100459.64
2023-04-07T10:19:33.678Z,100457.52
2023-04-07T10:22:01.942Z,100457.27
2023-04-07T10:24:53.476Z,100458.24
2023-04-07T10:27:34.141Z,100457.17
2023-04-07T10:30:01.983Z,100462.06
2023-04-07T10:32:30.474Z,100459.32
2023-04-07T10:34:59.381Z,100458.80
2023-04-07T10:37:27.694Z,100459.90
2023-04-07T10:40:26.663Z,100456.26
2023-04-07T10:42:54.197Z,100460.43
2023-04-07T10:45:53.956Z,100460.98
2023-04-07T10:48:22.591Z,100462.17
2023-04-07T10:51:05.888Z,100459.41
2023-04-07T10:53:34.851Z,100457.97
2023-04-07T10:56:02.597Z,100453.66
2023-04-07T10:58:33.667Z,100454.02
2023-04-07T11:01:10.055Z,100454.04
2023-04-07T12:31:13.847Z,100438.68
2023-04-07T12:33:42.899Z,100433.60
2023-04-07T12:36:11.830Z,100431.64
2023-04-07T12:38:40.976Z,100428.50
2023-04-07T12:41:09.928Z,100422.87
2023-04-07T12:43:39.949Z,100417.91
2023-04-07T12:46:09.101Z,100419.14
2023-04-07T12:48:39.015Z,100416.07
2023-04-07T12:51:07.897Z,100419.17
2023-04-07T12:53:36.716Z,100417.43
2023-04-07T12:56:05.732Z,100416.66
2023-04-07T12:58:43.479Z,100420.88
2023-04-07T13:01:13.023Z,100419.84
2023-04-07T13:03:43.874Z,100420.40
2023-04-07T13:06:20.260Z,100417.68
2023-04-07T13:08:52.208Z,100417.30
2023-04-07T13:11:22.411Z,100419.48
2023-04-07T13:13:51.936Z,100418.52
2023-04-07T13:16:22.170Z,100419.02
2023-04-07T13:18:52.166Z,100417.42
2023-04-07T13:24:48.446Z,100419.04
2023-04-07T13:27:16.570Z,100423.78
2023-04-07T13:29:44.684Z,100426.30
2023-04-07T13:32:13.024Z,100426.52
2023-04-07T13:34:41.484Z,100427.52
2023-04-07T13:37:09.305Z,100423.67
2023-04-07T13:39:37.127Z,100424.10
2023-04-07T13:42:06.647Z,100426.04
2023-04-07T13:44:36.832Z,100422.37
2023-04-07T13:47:04.736Z,100426.77
2023-04-07T13:49:34.137Z,100423.55
2023-04-07T13:52:02.020Z,100428.80
2023-04-07T13:54:34.102Z,100431.01
2023-04-07T13:57:01.622Z,100433.10
2023-04-07T13:59:29.312Z,100437.17
2023-04-07T14:01:57.265Z,100440.38
2023-04-07T14:04:24.854Z,100436.33
2023-04-07T14:06:52.930Z,100433.46
2023-04-07T14:09:21.090Z,100434.55
2023-04-07T14:11:48.772Z,100434.58
2023-04-07T14:14:18.555Z,100430.27
2023-04-07T14:16:47.768Z,100432.59
2023-04-07T14:19:15.932Z,100436.52
2023-04-07T14:21:44.644Z,100433.18
2023-04-07T14:24:12.570Z,100435.48
2023-04-07T14:26:40.148Z,100433.77
2023-04-07T14:29:07.707Z,100434.52
2023-04-07T14:31:35.484Z,100437.49
2023-04-07T14:34:03.145Z,100435.45
2023-04-07T14:36:31.721Z,100436.48
2023-04-07T14:38:59.289Z,100436.95
2023-04-07T14:41:27.217Z,100442.65
2023-04-07T14:43:58.400Z,100443.06
2023-04-07T14:46:30.360Z,100440.89
2023-04-07T14:48:58.425Z,100439.06
2023-04-07T14:51:25.845Z,100438.40
2023-04-07T14:53:56.020Z,100447.33
2023-04-07T14:56:24.538Z,100444.40
2023-04-07T14:58:52.424Z,100442.50
2023-04-07T15:01:20.850Z,100441.73
2023-04-07T15:03:52.986Z,100440.27
2023-04-07T15:06:20.957Z,100438.39
2023-04-07T15:08:49.679Z,100440.88
2023-04-07T15:11:17.313Z,100441.91
2023-04-07T15:13:44.959Z,100443.45
2023-04-07T15:16:13.593Z,100443.31
2023-04-07T15:18:44.304Z,100447.07
2023-04-07T15:21:12.096Z,100447.09
2023-04-07T15:23:41.725Z,100451.50
2023-04-07T15:26:11.940Z,100451.33
2023-04-07T15:41:15.211Z,100456.77
2023-04-07T15:43:45.105Z,100457.51
2023-04-07T15:46:14.135Z,100451.83
2023-04-07T15:48:43.857Z,100447.20
2023-04-07T15:51:12.837Z,100447.39
2023-04-07T15:53:43.556Z,100448.30
2023-04-07T15:56:13.793Z,100443.88
2023-04-07T15:58:45.628Z,100445.54
2023-04-07T16:01:14.336Z,100441.71
2023-04-07T16:03:44.357Z,100442.79
2023-04-07T16:06:13.846Z,100445.54
2023-04-07T16:08:42.795Z,100447.73
2023-04-07T16:11:15.552Z,100446.36
2023-04-07T16:13:44.669Z,100443.55
2023-04-07T16:16:19.641Z,100446.98
2023-04-07T16:18:49.124Z,100446.34
2023-04-07T16:21:18.296Z,100444.64
2023-04-07T16:23:51.288Z,100445.14
2023-04-07T16:26:20.268Z,100448.23
2023-04-07T16:28:49.700Z,100453.04
2023-04-07T16:31:18.954Z,100451.58
2023-04-07T16:33:48.765Z,100455.52
2023-04-07T16:36:18.034Z,100451.78
2023-04-07T16:38:47.171Z,100453.20
2023-04-07T16:41:16.191Z,100456.70
2023-04-07T16:43:45.248Z,100463.45
2023-04-07T16:46:14.503Z,100469.52
2023-04-07T16:48:43.658Z,100467.47
2023-04-07T16:51:19.653Z,100470.09
2023-04-07T16:53:49.138Z,100471.03
2023-04-07T16:56:21.963Z,100476.52
2023-04-07T16:58:51.680Z,100484.80
2023-04-07T17:01:22.208Z,100489.72
2023-04-07T17:03:53.106Z,100492.08
2023-04-07T17:06:22.468Z,100496.61
2023-04-07T17:08:51.839Z,100507.17
2023-04-07T17:11:22.208Z,100514.90
2023-04-07T17:13:57.133Z,100526.95
2023-04-07T17:16:30.067Z,100536.79
2023-04-07T17:18:59.157Z,100542.89
2023-04-07T17:21:28.274Z,100545.33
2023-04-07T17:23:57.807Z,100543.00
2023-04-07T17:26:27.477Z,100542.17
2023-04-07T17:28:56.418Z,100548.10
2023-04-07T17:31:25.282Z,100552.48
2023-04-07T17:33:54.382Z,100556.69
2023-04-07T17:36:23.650Z,100562.83
2023-04-07T17:38:53.504Z,100569.75
2023-04-07T17:41:23.168Z,100570.15
2023-04-07T17:43:52.896Z,100573.11
2023-04-07T17:46:23.037Z,100575.72
2023-04-07T17:48:52.166Z,100580.55
2023-04-07T17:51:21.308Z,100583.71
2023-04-07T17:53:50.811Z,100587.23
2023-04-07T17:56:25.413Z,100585.12
2023-04-07T17:58:54.712Z,100581.68
2023-04-07T18:01:24.021Z,100586.94
2023-04-07T18:03:54.432Z,100586.83
2023-04-07T18:06:23.906Z,100586.41
2023-04-07T18:08:52.967Z,100590.98
2023-04-07T18:11:24.189Z,100591.27
2023-04-07T18:13:53.348Z,100590.63
2023-04-07T18:16:22.710Z,100588.02
2023-04-07T18:18:53.073Z,100593.84
2023-04-07T18:21:22.464Z,100592.17
2023-04-07T18:23:51.626Z,100588.57
2023-04-07T18:26:20.788Z,100590.80
2023-04-07T18:28:49.829Z,100584.20
2023-04-07T18:31:20.503Z,100579.21
2023-04-07T18:33:50.025Z,100580.87
2023-04-07T18:36:19.497Z,100577.66
2023-04-07T18:38:51.125Z,100583.23
2023-04-07T18:41:20.180Z,100585.09
2023-04-07T18:43:49.483Z,100586.97
2023-04-07T18:46:18.776Z,100584.27
2023-04-07T18:48:48.285Z,100580.61
2023-04-07T18:51:17.668Z,100579.99
2023-04-07T18:53:46.761Z,100577.96
2023-04-07T18:56:16.266Z,100577.96
2023-04-07T18:58:46.405Z,100579.79
2023-04-07T19:01:17.806Z,100577.73
2023-04-07T19:03:47.122Z,100574.27
2023-04-07T19:06:16.954Z,100571.63
2023-04-07T19:08:47.967Z,100576.20
2023-04-07T19:11:18.125Z,100581.77
2023-04-07T19:13:48.704Z,100584.20
2023-04-07T19:16:18.205Z,100581.75
2023-04-07T19:18:48.484Z,100578.75
2023-04-07T19:21:17.836Z,100577.64
2023-04-07T19:23:47.990Z,100581.41
2023-04-07T19:26:17.477Z,100582.88
2023-04-07T19:28:47.106Z,100585.16
2023-04-07T19:31:16.371Z,100585.66
2023-04-07T19:33:45.526Z,100586.70
2023-04-07T19:36:16.272Z,100584.76
2023-04-07T19:38:46.201Z,100581.27
2023-04-07T19:41:15.985Z,100585.15
2023-04-07T19:43:46.730Z,100582.39
2023-04-07T19:46:16.991Z,100582.14
2023-04-07T19:48:47.363Z,100588.94
2023-04-07T19:51:17.160Z,100590.72
2023-04-07T19:53:47.727Z,100587.24
2023-04-07T19:56:17.833Z,100588.80
2023-04-07T19:58:47.456Z,100587.17
2023-04-07T20:01:20.066Z,100585.89
2023-04-07T20:03:49.576Z,100581.22
2023-04-07T20:06:19.629Z,100583.19
2023-04-07T20:08:51.422Z,100586.22
2023-04-07T20:11:20.551Z,100587.01
2023-04-07T20:13:50.528Z,100585.48
2023-04-07T20:16:20.819Z,100586.13
2023-04-07T20:18:51.343Z,100587.05
2023-04-07T20:21:21.391Z,100588.95
2023-04-07T20:23:51.876Z,100590.56
2023-04-07T20:26:22.510Z,100590.60
2023-04-07T20:28:53.899Z,100590.98
2023-04-07T20:31:23.797Z,100588.89
2023-04-07T20:33:52.761Z,100589.35
2023-04-07T20:36:21.663Z,100588.73
2023-04-07T20:38:51.177Z,100583.83
2023-04-07T20:41:22.875Z,100585.80
2023-04-07T20:43:52.185Z,100585.42
2023-04-07T20:46:21.652Z,100583.27
2023-04-07T20:48:51.050Z,100583.59
2023-04-07T20:51:20.238Z,100581.98
2023-04-07T20:53:49.658Z,100576.08
2023-04-07T20:56:18.921Z,100580.48
2023-04-07T20:58:54.316Z,100575.95
2023-04-07T21:01:23.451Z,100577.58
2023-04-07T21:03:54.169Z,100581.70
2023-04-07T21:06:23.374Z,100581.50
2023-04-07T21:08:52.318Z,100578.69
2023-04-07T21:11:22.498Z,100580.85
2023-04-07T21:13:51.399Z,100577.05
2023-04-07T21:16:20.293Z,100576.60
2023-04-07T21:18:49.390Z,100574.52
2023-04-07T21:21:27.129Z,100575.56
2023-04-07T21:23:56.526Z,100576.70
2023-04-07T21:26:25.364Z,100571.71
2023-04-07T21:28:54.512Z,100571.05
2023-04-07T21:31:24.025Z,100570.81
2023-04-07T21:33:53.891Z,100572.11
2023-04-07T21:36:23.058Z,100570.08
2023-04-07T21:38:52.793Z,100567.54
2023-04-07T21:41:23.057Z,100570.05
2023-04-07T21:43:51.954Z,100570.19
2023-04-07T21:46:20.825Z,100565.77
2023-04-07T21:48:50.497Z,100568.61
2023-04-07T21:51:21.990Z,100567.50
2023-04-07T21:53:51.583Z,100571.17
2023-04-07T21:56:20.430Z,100568.40
2023-04-07T21:58:50.828Z,100565.20
2023-04-07T22:01:19.957Z,100566.24
2023-04-07T22:03:50.111Z,100569.23
2023-04-07T22:06:19.555Z,100563.08
2023-04-07T22:09:00.591Z,100564.98
2023-04-07T22:11:31.237Z,100565.64
2023-04-07T22:14:00.149Z,100566.59
2023-04-07T22:16:29.373Z,100561.79
2023-04-07T22:19:01.903Z,100562.02
2023-04-07T22:21:31.936Z,100559.83
2023-04-07T22:24:01.388Z,100556.83
2023-04-07T22:26:32.088Z,100560.31
2023-04-07T22:29:01.014Z,100556.06
2023-04-07T22:31:36.743Z,100555.02
2023-04-07T22:34:06.760Z,100553.27
2023-04-07T22:36:35.619Z,100547.45
2023-04-07T22:39:04.996Z,100547.48
2023-04-07T22:41:34.305Z,100546.59
2023-04-07T22:44:09.402Z,100539.77
2023-04-07T22:46:39.697Z,100540.68
2023-04-07T22:49:08.694Z,100542.39
2023-04-07T22:51:38.058Z,100543.64
2023-04-07T22:54:07.229Z,100541.64
2023-04-07T22:56:37.724Z,100539.61
2023-04-07T22:59:06.601Z,100542.23
2023-04-07T23:01:35.761Z,100542.55
2023-04-07T23:04:04.667Z,100540.60
2023-04-07T23:06:34.530Z,100541.55
2023-04-07T23:09:03.884Z,100538.48
2023-04-07T23:11:34.206Z,100537.93
2023-04-07T23:14:06.380Z,100534.80
2023-04-07T23:16:36.782Z,100531.92
2023-04-07T23:19:05.662Z,100532.73
2023-04-07T23:21:35.051Z,100526.52
2023-04-07T23:24:04.188Z,100531.31
2023-04-07T23:26:35.048Z,100531.01
2023-04-07T23:29:03.978Z,100529.42
2023-04-07T23:31:33.632Z,100528.33
2023-04-07T23:34:04.378Z,100525.98
2023-04-07T23:36:35.529Z,100527.23
2023-04-07T23:39:04.825Z,100531.27
2023-04-07T23:41:34.182Z,100535.09
2023-04-07T23:44:04.221Z,100539.08
2023-04-07T23:46:33.759Z,100545.73
2023-04-07T23:49:03.274Z,100547.14
2023-04-07T23:51:32.288Z,100550.43
2023-04-07T23:54:01.336Z,100549.30
2023-04-07T23:56:30.880Z,100550.59
2023-04-07T23:59:05.064Z,100546.90
